sensor_id;sensor_type;location;lat;lon;timestamp;pressure;altitude;pressure_sealevel;temperature;humidity
64023;BME280;50264;52.088;5.296;2023-02-20T00:01:10;102494.0;;;6.05;97.5
64023;BME280;50264;52.088;5.296;2023-02-20T00:02:48;102490.00000000001;;;6.04;97.71
64023;BME280;50264;52.088;5.296;2023-02-20T00:04:25;102483.0;;;6.03;97.77
64023;BME280;50264;52.088;5.296;2023-02-20T00:06:02;102474.0;;;5.91;98.15
64023;BME280;50264;52.088;5.296;2023-02-20T00:09:15;102466.00000000001;;;5.94;98.37
64023;BME280;50264;52.088;5.296;2023-02-20T00:10:53;102458.0;;;5.9;97.52
64023;BME280;50264;52.088;5.296;2023-02-20T00:12:29;102449.0;;;5.99;98.62
64023;BME280;50264;52.088;5.296;2023-02-20T00:15:43;102432.0;;;6.13;97.7
64023;BME280;50264;52.088;5.296;2023-02-20T00:17:20;102442.0;;;6.2;97.79
64023;BME280;50264;52.088;5.296;2023-02-20T00:18:56;102459.99999999999;;;6.16;97.88
64023;BME280;50264;52.088;5.296;2023-02-20T00:22:11;102478.0;;;6.2;97.67
64023;BME280;50264;52.088;5.296;2023-02-20T00:23:47;102479.0;;;6.44;96.69
64023;BME280;50264;52.088;5.296;2023-02-20T00:25:25;102461.99999999999;;;6.47;96.63
64023;BME280;50264;52.088;5.296;2023-02-20T00:27:02;102453.0;;;6.53;96.78
64023;BME280;50264;52.088;5.296;2023-02-20T00:30:18;102447.0;;;6.52;96.34
64023;BME280;50264;52.088;5.296;2023-02-20T00:31:57;102449.0;;;6.57;96.07
64023;BME280;50264;52.088;5.296;2023-02-20T00:33:36;102448.0;;;6.49;96.43
64023;BME280;50264;52.088;5.296;2023-02-20T00:36:49;102443.0;;;6.48;96.75
64023;BME280;50264;52.088;5.296;2023-02-20T00:38:26;102440.00000000001;;;6.38;97.1
64023;BME280;50264;52.088;5.296;2023-02-20T00:40:05;102434.99999999999;;;6.54;96.22
64023;BME280;50264;52.088;5.296;2023-02-20T00:41:43;102430.0;;;6.43;96.37
64023;BME280;50264;52.088;5.296;2023-02-20T00:44:56;102433.0;;;6.49;96.28
64023;BME280;50264;52.088;5.296;2023-02-20T00:46:33;102436.99999999999;;;6.51;96.31
64023;BME280;50264;52.088;5.296;2023-02-20T00:51:24;102425.0;;;6.53;96.28
64023;BME280;50264;52.088;5.296;2023-02-20T00:53:01;102422.0;;;6.45;95.92
64023;BME280;50264;52.088;5.296;2023-02-20T00:54:39;102422.0;;;6.5;96.12
64023;BME280;50264;52.088;5.296;2023-02-20T00:56:15;102419.0;;;6.48;95.89
64023;BME280;50264;52.088;5.296;2023-02-20T00:59:28;102419.0;;;6.35;96.6
64023;BME280;50264;52.088;5.296;2023-02-20T01:01:05;102406.0;;;6.48;96.51
64023;BME280;50264;52.088;5.296;2023-02-20T01:02:42;102407.0;;;6.4;96.66
64023;BME280;50264;52.088;5.296;2023-02-20T01:05:55;102407.0;;;6.41;96.17
64023;BME280;50264;52.088;5.296;2023-02-20T01:07:32;102397.0;;;6.47;95.75
64023;BME280;50264;52.088;5.296;2023-02-20T01:09:09;102398.0;;;6.42;96.19
64023;BME280;50264;52.088;5.296;2023-02-20T01:10:48;102388.0;;;6.4;96.26
64023;BME280;50264;52.088;5.296;2023-02-20T01:14:02;102387.0;;;6.4;96.03
64023;BME280;50264;52.088;5.296;2023-02-20T01:15:39;102380.0;;;6.29;95.56
64023;BME280;50264;52.088;5.296;2023-02-20T01:17:15;102368.0;;;6.32;96.08
64023;BME280;50264;52.088;5.296;2023-02-20T01:20:29;102349.0;;;6.23;96.23
64023;BME280;50264;52.088;5.296;2023-02-20T01:22:07;102336.0;;;6.25;96.7
64023;BME280;50264;52.088;5.296;2023-02-20T01:23:44;102330.0;;;6.23;95.98
64023;BME280;50264;52.088;5.296;2023-02-20T01:26:58;102330.0;;;6.27;96.73
64023;BME280;50264;52.088;5.296;2023-02-20T01:28:34;102321.0;;;6.28;96.74
64023;BME280;50264;52.088;5.296;2023-02-20T01:30:12;102326.0;;;6.28;96.46
64023;BME280;50264;52.088;5.296;2023-02-20T01:31:50;102331.0;;;6.33;96.54
64023;BME280;50264;52.088;5.296;2023-02-20T01:35:05;102330.0;;;6.35;96.57
64023;BME280;50264;52.088;5.296;2023-02-20T01:36:46;102324.0;;;6.39;96.41
64023;BME280;50264;52.088;5.296;2023-02-20T01:38:24;102345.0;;;6.36;96.55
64023;BME280;50264;52.088;5.296;2023-02-20T01:41:39;102341.0;;;6.34;96.83
64023;BME280;50264;52.088;5.296;2023-02-20T01:43:16;102336.0;;;6.37;96.62
64023;BME280;50264;52.088;5.296;2023-02-20T01:44:52;102337.0;;;6.39;96.36
64023;BME280;50264;52.088;5.296;2023-02-20T01:46:47;102337.0;;;6.51;96.32
64023;BME280;50264;52.088;5.296;2023-02-20T01:50:03;102334.0;;;6.5;96.43
64023;BME280;50264;52.088;5.296;2023-02-20T01:51:45;102330.0;;;6.56;96.09
64023;BME280;50264;52.088;5.296;2023-02-20T01:53:27;102336.0;;;6.63;96.08
64023;BME280;50264;52.088;5.296;2023-02-20T01:55:10;102332.0;;;6.59;96.3
64023;BME280;50264;52.088;5.296;2023-02-20T01:56:49;102320.0;;;6.6;96.29
64023;BME280;50264;52.088;5.296;2023-02-20T02:00:13;102323.0;;;6.66;96.42
64023;BME280;50264;52.088;5.296;2023-02-20T02:01:53;102320.0;;;6.65;96.9
64023;BME280;50264;52.088;5.296;2023-02-20T02:03:32;102316.0;;;6.62;96.61
64023;BME280;50264;52.088;5.296;2023-02-20T02:05:11;102324.0;;;6.75;96.5
64023;BME280;50264;52.088;5.296;2023-02-20T02:08:29;102327.0;;;6.7;96.58
64023;BME280;50264;52.088;5.296;2023-02-20T02:10:10;102319.0;;;6.88;95.92
64023;BME280;50264;52.088;5.296;2023-02-20T02:11:49;102318.0;;;6.91;96.38
64023;BME280;50264;52.088;5.296;2023-02-20T02:15:12;102310.0;;;6.93;96.3
64023;BME280;50264;52.088;5.296;2023-02-20T02:16:59;102310.0;;;7.07;96.1
64023;BME280;50264;52.088;5.296;2023-02-20T02:18:51;102317.0;;;6.95;96.03
64023;BME280;50264;52.088;5.296;2023-02-20T02:22:10;102311.0;;;6.99;96.22
64023;BME280;50264;52.088;5.296;2023-02-20T02:24:57;102309.0;;;6.94;96.81
64023;BME280;50264;52.088;5.296;2023-02-20T02:27:21;102306.0;;;7.05;96.76
64023;BME280;50264;52.088;5.296;2023-02-20T02:30:30;102313.0;;;7.11;96.58
64023;BME280;50264;52.088;5.296;2023-02-20T02:32:27;102306.0;;;7.04;96.94
64023;BME280;50264;52.088;5.296;2023-02-20T02:35:26;102296.0;;;7.15;97.0
64023;BME280;50264;52.088;5.296;2023-02-20T02:36:50;102296.0;;;7.15;97.0
64023;BME280;50264;52.088;5.296;2023-02-20T02:38:38;102302.0;;;7.15;97.16
64023;BME280;50264;52.088;5.296;2023-02-20T02:40:25;102289.0;;;7.17;97.66
64023;BME280;50264;52.088;5.296;2023-02-20T02:42:13;102285.0;;;7.18;97.63
64023;BME280;50264;52.088;5.296;2023-02-20T02:43:55;102280.0;;;7.23;97.89
64023;BME280;50264;52.088;5.296;2023-02-20T02:45:41;102284.0;;;7.25;97.93
64023;BME280;50264;52.088;5.296;2023-02-20T02:47:24;102282.0;;;7.39;97.57
64023;BME280;50264;52.088;5.296;2023-02-20T02:50:48;102281.0;;;7.41;97.53
64023;BME280;50264;52.088;5.296;2023-02-20T02:53:00;102276.0;;;7.37;97.75
64023;BME280;50264;52.088;5.296;2023-02-20T02:54:38;102277.0;;;7.36;98.13
64023;BME280;50264;52.088;5.296;2023-02-20T02:56:32;102277.0;;;7.37;98.13
64023;BME280;50264;52.088;5.296;2023-02-20T02:58:10;102269.0;;;7.4;98.16
64023;BME280;50264;52.088;5.296;2023-02-20T02:59:50;102273.0;;;7.46;98.01
64023;BME280;50264;52.088;5.296;2023-02-20T03:03:16;102274.0;;;7.43;97.88
64023;BME280;50264;52.088;5.296;2023-02-20T03:04:57;102275.0;;;7.42;98.27
64023;BME280;50264;52.088;5.296;2023-02-20T03:06:38;102275.0;;;7.5;98.17
64023;BME280;50264;52.088;5.296;2023-02-20T03:08:25;102275.0;;;7.46;97.88
64023;BME280;50264;52.088;5.296;2023-02-20T03:10:21;102271.0;;;7.49;98.07
64023;BME280;50264;52.088;5.296;2023-02-20T03:16:00;102265.0;;;7.56;97.96
64023;BME280;50264;52.088;5.296;2023-02-20T03:17:39;102270.0;;;7.64;97.57
64023;BME280;50264;52.088;5.296;2023-02-20T03:19:20;102269.0;;;7.65;97.44
64023;BME280;50264;52.088;5.296;2023-02-20T03:21:10;102266.0;;;7.66;97.64
64023;BME280;50264;52.088;5.296;2023-02-20T03:22:54;102256.0;;;7.65;97.67
64023;BME280;50264;52.088;5.296;2023-02-20T03:26:36;102259.0;;;7.69;97.36
64023;BME280;50264;52.088;5.296;2023-02-20T03:28:18;102255.0;;;7.75;97.3
64023;BME280;50264;52.088;5.296;2023-02-20T03:29:58;102258.0;;;7.75;97.58
64023;BME280;50264;52.088;5.296;2023-02-20T03:31:38;102249.0;;;7.71;97.63
64023;BME280;50264;52.088;5.296;2023-02-20T03:44:25;102246.0;;;7.78;97.91
64023;BME280;50264;52.088;5.296;2023-02-20T03:46:05;102248.0;;;7.72;97.67
64023;BME280;50264;52.088;5.296;2023-02-20T03:47:48;102250.0;;;7.83;97.57
64023;BME280;50264;52.088;5.296;2023-02-20T03:52:53;102237.0;;;7.86;97.89
64023;BME280;50264;52.088;5.296;2023-02-20T03:54:31;102237.0;;;7.76;97.91
64023;BME280;50264;52.088;5.296;2023-02-20T03:56:14;102239.0;;;7.8;97.81
64023;BME280;50264;52.088;5.296;2023-02-20T03:59:39;102238.0;;;7.72;98.12
64023;BME280;50264;52.088;5.296;2023-02-20T04:01:19;102230.0;;;7.76;98.04
64023;BME280;50264;52.088;5.296;2023-02-20T04:03:01;102218.0;;;7.84;97.97
64023;BME280;50264;52.088;5.296;2023-02-20T04:04:45;102222.0;;;7.83;97.77
64023;BME280;50264;52.088;5.296;2023-02-20T04:08:09;102225.0;;;7.94;97.67
64023;BME280;50264;52.088;5.296;2023-02-20T04:09:48;102226.0;;;7.92;97.57
64023;BME280;50264;52.088;5.296;2023-02-20T04:11:28;102222.0;;;7.85;97.62
64023;BME280;50264;52.088;5.296;2023-02-20T04:13:10;102219.0;;;7.98;97.39
64023;BME280;50264;52.088;5.296;2023-02-20T04:16:31;102219.0;;;8.0;97.23
64023;BME280;50264;52.088;5.296;2023-02-20T04:18:14;102216.0;;;7.91;97.41
64023;BME280;50264;52.088;5.296;2023-02-20T04:19:51;102227.0;;;7.99;97.23
64023;BME280;50264;52.088;5.296;2023-02-20T04:21:34;102218.0;;;8.02;97.13
64023;BME280;50264;52.088;5.296;2023-02-20T04:24:57;102223.0;;;7.94;97.16
64023;BME280;50264;52.088;5.296;2023-02-20T04:26:36;102219.0;;;8.06;96.96
64023;BME280;50264;52.088;5.296;2023-02-20T04:28:14;102222.0;;;8.05;97.02
64023;BME280;50264;52.088;5.296;2023-02-20T04:29:51;102222.0;;;7.86;97.9
64023;BME280;50264;52.088;5.296;2023-02-20T04:33:05;102217.0;;;7.9;97.86
64023;BME280;50264;52.088;5.296;2023-02-20T04:34:45;102217.0;;;8.02;97.48
64023;BME280;50264;52.088;5.296;2023-02-20T04:36:22;102217.0;;;7.98;97.55
64023;BME280;50264;52.088;5.296;2023-02-20T04:38:00;102220.0;;;7.96;97.48
64023;BME280;50264;52.088;5.296;2023-02-20T04:41:14;102216.0;;;7.95;97.59
64023;BME280;50264;52.088;5.296;2023-02-20T04:42:51;102217.0;;;7.95;97.76
64023;BME280;50264;52.088;5.296;2023-02-20T04:44:31;102219.0;;;7.86;97.88
64023;BME280;50264;52.088;5.296;2023-02-20T04:47:46;102216.0;;;8.07;97.54
64023;BME280;50264;52.088;5.296;2023-02-20T04:49:22;102222.0;;;8.17;97.01
64023;BME280;50264;52.088;5.296;2023-02-20T04:52:37;102209.0;;;8.06;97.24
64023;BME280;50264;52.088;5.296;2023-02-20T04:55:51;102215.0;;;8.03;97.31
64023;BME280;50264;52.088;5.296;2023-02-20T04:57:28;102215.0;;;8.03;97.67
64023;BME280;50264;52.088;5.296;2023-02-20T04:59:04;102216.0;;;8.08;97.32
64023;BME280;50264;52.088;5.296;2023-02-20T05:02:20;102217.0;;;8.16;96.88
64023;BME280;50264;52.088;5.296;2023-02-20T05:03:57;102211.0;;;8.23;96.47
64023;BME280;50264;52.088;5.296;2023-02-20T05:05:34;102215.0;;;8.13;96.89
64023;BME280;50264;52.088;5.296;2023-02-20T05:07:11;102212.0;;;8.25;96.43
64023;BME280;50264;52.088;5.296;2023-02-20T05:10:26;102218.0;;;8.23;96.3
64023;BME280;50264;52.088;5.296;2023-02-20T05:12:03;102220.0;;;8.17;96.55
64023;BME280;50264;52.088;5.296;2023-02-20T05:13:40;102214.0;;;8.23;96.33
64023;BME280;50264;52.088;5.296;2023-02-20T05:16:54;102210.0;;;8.23;96.37
64023;BME280;50264;52.088;5.296;2023-02-20T05:18:32;102220.0;;;8.24;96.11
64023;BME280;50264;52.088;5.296;2023-02-20T05:20:10;102218.0;;;8.38;95.9
64023;BME280;50264;52.088;5.296;2023-02-20T05:22:23;102214.0;;;8.36;95.95
64023;BME280;50264;52.088;5.296;2023-02-20T05:23:59;102209.0;;;8.34;95.64
64023;BME280;50264;52.088;5.296;2023-02-20T05:27:16;102214.0;;;8.36;96.0
64023;BME280;50264;52.088;5.296;2023-02-20T05:28:53;102207.0;;;8.36;95.77
64023;BME280;50264;52.088;5.296;2023-02-20T05:30:30;102213.0;;;8.39;95.81
64023;BME280;50264;52.088;5.296;2023-02-20T05:33:43;102209.0;;;8.43;95.18
64023;BME280;50264;52.088;5.296;2023-02-20T05:35:20;102217.0;;;8.4;95.43
64023;BME280;50264;52.088;5.296;2023-02-20T05:36:57;102214.0;;;8.39;95.59
64023;BME280;50264;52.088;5.296;2023-02-20T05:38:34;102215.0;;;8.33;95.62
64023;BME280;50264;52.088;5.296;2023-02-20T05:41:48;102212.0;;;8.39;95.82
64023;BME280;50264;52.088;5.296;2023-02-20T05:43:24;102214.0;;;8.42;95.43
64023;BME280;50264;52.088;5.296;2023-02-20T05:45:01;102213.0;;;8.39;95.24
64023;BME280;50264;52.088;5.296;2023-02-20T05:48:17;102216.0;;;8.48;94.74
64023;BME280;50264;52.088;5.296;2023-02-20T05:49:54;102207.0;;;8.43;94.87
64023;BME280;50264;52.088;5.296;2023-02-20T05:51:31;102211.0;;;8.49;95.03
64023;BME280;50264;52.088;5.296;2023-02-20T05:54:45;102205.0;;;8.6;94.45
64023;BME280;50264;52.088;5.296;2023-02-20T05:56:22;102211.0;;;8.53;94.58
64023;BME280;50264;52.088;5.296;2023-02-20T05:57:58;102211.0;;;8.51;94.68
64023;BME280;50264;52.088;5.296;2023-02-20T05:59:36;102201.0;;;8.45;94.8
64023;BME280;50264;52.088;5.296;2023-02-20T06:02:53;102196.0;;;8.5;94.73
64023;BME280;50264;52.088;5.296;2023-02-20T06:04:29;102205.0;;;8.45;94.51
64023;BME280;50264;52.088;5.296;2023-02-20T06:06:06;102205.0;;;8.44;94.75
64023;BME280;50264;52.088;5.296;2023-02-20T06:09:20;102202.0;;;8.53;94.51
64023;BME280;50264;52.088;5.296;2023-02-20T06:10:56;102199.0;;;8.56;94.19
64023;BME280;50264;52.088;5.296;2023-02-20T06:12:33;102196.0;;;8.52;94.54
64023;BME280;50264;52.088;5.296;2023-02-20T06:14:10;102193.0;;;8.52;94.42
64023;BME280;50264;52.088;5.296;2023-02-20T06:17:24;102201.0;;;8.56;94.29
64023;BME280;50264;52.088;5.296;2023-02-20T06:19:00;102199.0;;;8.56;94.14
64023;BME280;50264;52.088;5.296;2023-02-20T06:20:37;102210.0;;;8.56;94.22
64023;BME280;50264;52.088;5.296;2023-02-20T06:23:52;102201.0;;;8.6;93.81
64023;BME280;50264;52.088;5.296;2023-02-20T06:25:29;102215.0;;;8.53;93.93
64023;BME280;50264;52.088;5.296;2023-02-20T06:27:07;102207.0;;;8.52;94.58
64023;BME280;50264;52.088;5.296;2023-02-20T06:30:20;102205.0;;;8.48;94.39
64023;BME280;50264;52.088;5.296;2023-02-20T06:31:57;102205.0;;;8.56;94.17
64023;BME280;50264;52.088;5.296;2023-02-20T06:33:34;102202.0;;;8.53;94.1
64023;BME280;50264;52.088;5.296;2023-02-20T06:35:11;102210.0;;;8.66;93.99
64023;BME280;50264;52.088;5.296;2023-02-20T06:38:26;102209.0;;;8.64;93.42
64023;BME280;50264;52.088;5.296;2023-02-20T06:40:04;102205.0;;;8.56;93.36
64023;BME280;50264;52.088;5.296;2023-02-20T06:41:41;102208.0;;;8.56;93.62
64023;BME280;50264;52.088;5.296;2023-02-20T06:44:56;102207.0;;;8.57;93.95
64023;BME280;50264;52.088;5.296;2023-02-20T06:46:32;102217.0;;;8.68;92.94
64023;BME280;50264;52.088;5.296;2023-02-20T06:48:10;102207.0;;;8.6;93.15
64023;BME280;50264;52.088;5.296;2023-02-20T06:49:48;102207.0;;;8.64;93.25
64023;BME280;50264;52.088;5.296;2023-02-20T06:53:04;102206.0;;;8.69;93.16
64023;BME280;50264;52.088;5.296;2023-02-20T06:54:41;102211.0;;;8.67;92.82
64023;BME280;50264;52.088;5.296;2023-02-20T06:56:21;102213.0;;;8.71;92.96
64023;BME280;50264;52.088;5.296;2023-02-20T06:59:40;102207.0;;;8.57;93.21
64023;BME280;50264;52.088;5.296;2023-02-20T07:01:21;102212.0;;;8.63;93.13
64023;BME280;50264;52.088;5.296;2023-02-20T07:02:59;102208.0;;;8.59;93.85
64023;BME280;50264;52.088;5.296;2023-02-20T07:04:36;102205.0;;;8.53;93.55
64023;BME280;50264;52.088;5.296;2023-02-20T07:07:50;102212.0;;;8.49;93.71
64023;BME280;50264;52.088;5.296;2023-02-20T07:09:28;102212.0;;;8.56;93.57
64023;BME280;50264;52.088;5.296;2023-02-20T07:11:05;102210.0;;;8.6;93.56
64023;BME280;50264;52.088;5.296;2023-02-20T07:14:18;102205.0;;;8.53;93.58
64023;BME280;50264;52.088;5.296;2023-02-20T07:15:55;102206.0;;;8.56;93.6
64023;BME280;50264;52.088;5.296;2023-02-20T07:17:33;102216.0;;;8.69;93.19
64023;BME280;50264;52.088;5.296;2023-02-20T07:19:10;102215.0;;;8.64;93.26
64023;BME280;50264;52.088;5.296;2023-02-20T07:22:26;102200.0;;;8.53;93.55
64023;BME280;50264;52.088;5.296;2023-02-20T07:24:05;102216.0;;;8.58;93.65
64023;BME280;50264;52.088;5.296;2023-02-20T07:25:42;102215.0;;;8.61;94.05
64023;BME280;50264;52.088;5.296;2023-02-20T07:28:58;102215.0;;;8.68;93.22
64023;BME280;50264;52.088;5.296;2023-02-20T07:30:34;102211.0;;;8.73;93.19
64023;BME280;50264;52.088;5.296;2023-02-20T07:32:11;102217.0;;;8.77;93.35
64023;BME280;50264;52.088;5.296;2023-02-20T07:33:48;102222.0;;;8.73;93.01
64023;BME280;50264;52.088;5.296;2023-02-20T07:37:03;102227.0;;;8.88;92.84
64023;BME280;50264;52.088;5.296;2023-02-20T07:38:39;102224.0;;;8.81;92.98
64023;BME280;50264;52.088;5.296;2023-02-20T07:40:16;102212.0;;;8.8;93.24
64023;BME280;50264;52.088;5.296;2023-02-20T07:43:32;102208.0;;;8.77;93.33
64023;BME280;50264;52.088;5.296;2023-02-20T07:45:08;102230.0;;;8.75;93.3
64023;BME280;50264;52.088;5.296;2023-02-20T07:46:46;102223.0;;;8.88;93.42
64023;BME280;50264;52.088;5.296;2023-02-20T07:48:22;102222.0;;;8.83;93.28
64023;BME280;50264;52.088;5.296;2023-02-20T07:51:35;102224.0;;;8.83;92.98
64023;BME280;50264;52.088;5.296;2023-02-20T07:53:13;102225.0;;;8.88;93.06
64023;BME280;50264;52.088;5.296;2023-02-20T07:54:51;102224.0;;;8.96;92.76
64023;BME280;50264;52.088;5.296;2023-02-20T07:58:04;102236.0;;;8.88;93.09
64023;BME280;50264;52.088;5.296;2023-02-20T07:59:41;102230.0;;;8.86;93.75
64023;BME280;50264;52.088;5.296;2023-02-20T08:01:18;102231.0;;;8.77;93.64
64023;BME280;50264;52.088;5.296;2023-02-20T08:04:31;102218.0;;;8.97;92.96
64023;BME280;50264;52.088;5.296;2023-02-20T08:06:07;102217.0;;;9.02;93.26
64023;BME280;50264;52.088;5.296;2023-02-20T08:07:44;102219.0;;;8.94;92.78
64023;BME280;50264;52.088;5.296;2023-02-20T08:09:20;102214.0;;;8.92;93.2
64023;BME280;50264;52.088;5.296;2023-02-20T08:12:34;102217.0;;;8.84;93.48
64023;BME280;50264;52.088;5.296;2023-02-20T08:14:12;102214.0;;;8.91;93.57
64023;BME280;50264;52.088;5.296;2023-02-20T08:15:49;102222.0;;;8.93;93.12
64023;BME280;50264;52.088;5.296;2023-02-20T08:19:01;102209.0;;;8.99;93.23
64023;BME280;50264;52.088;5.296;2023-02-20T08:20:38;102209.0;;;8.96;93.64
64023;BME280;50264;52.088;5.296;2023-02-20T08:22:14;102211.0;;;8.92;94.19
64023;BME280;50264;52.088;5.296;2023-02-20T08:23:51;102210.0;;;8.99;93.71
64023;BME280;50264;52.088;5.296;2023-02-20T08:27:03;102208.0;;;8.92;93.69
64023;BME280;50264;52.088;5.296;2023-02-20T08:28:40;102219.0;;;8.93;93.78
64023;BME280;50264;52.088;5.296;2023-02-20T08:30:20;102215.0;;;8.94;93.57
64023;BME280;50264;52.088;5.296;2023-02-20T08:33:34;102214.0;;;8.99;94.15
64023;BME280;50264;52.088;5.296;2023-02-20T08:35:10;102212.0;;;9.09;93.58
64023;BME280;50264;52.088;5.296;2023-02-20T08:36:47;102209.0;;;9.21;93.21
64023;BME280;50264;52.088;5.296;2023-02-20T08:40:07;102205.0;;;9.0;93.46
64023;BME280;50264;52.088;5.296;2023-02-20T08:41:46;102200.0;;;9.0;93.75
64023;BME280;50264;52.088;5.296;2023-02-20T08:43:23;102202.0;;;9.06;94.13
64023;BME280;50264;52.088;5.296;2023-02-20T08:44:59;102201.0;;;9.19;93.32
64023;BME280;50264;52.088;5.296;2023-02-20T08:48:12;102199.0;;;9.19;93.63
64023;BME280;50264;52.088;5.296;2023-02-20T08:49:48;102193.0;;;9.23;93.1
64023;BME280;50264;52.088;5.296;2023-02-20T08:51:25;102199.0;;;9.23;93.5
64023;BME280;50264;52.088;5.296;2023-02-20T08:54:37;102195.0;;;9.32;93.28
64023;BME280;50264;52.088;5.296;2023-02-20T08:56:16;102193.0;;;9.23;93.0
64023;BME280;50264;52.088;5.296;2023-02-20T08:57:55;102187.0;;;9.23;93.07
64023;BME280;50264;52.088;5.296;2023-02-20T08:59:31;102178.0;;;9.22;93.58
64023;BME280;50264;52.088;5.296;2023-02-20T09:02:45;102191.0;;;9.15;94.02
64023;BME280;50264;52.088;5.296;2023-02-20T09:04:23;102197.0;;;9.15;93.83
64023;BME280;50264;52.088;5.296;2023-02-20T09:05:59;102206.0;;;9.14;94.01
64023;BME280;50264;52.088;5.296;2023-02-20T09:09:12;102207.0;;;9.03;94.77
64023;BME280;50264;52.088;5.296;2023-02-20T09:10:48;102194.0;;;9.1;94.46
64023;BME280;50264;52.088;5.296;2023-02-20T09:12:24;102199.0;;;9.07;94.57
64023;BME280;50264;52.088;5.296;2023-02-20T09:15:38;102183.0;;;9.07;94.35
64023;BME280;50264;52.088;5.296;2023-02-20T09:17:15;102194.0;;;9.14;94.35
64023;BME280;50264;52.088;5.296;2023-02-20T09:18:54;102191.0;;;9.23;94.42
64023;BME280;50264;52.088;5.296;2023-02-20T09:20:31;102195.0;;;9.27;94.21
64023;BME280;50264;52.088;5.296;2023-02-20T09:23:44;102194.0;;;9.31;93.46
64023;BME280;50264;52.088;5.296;2023-02-20T09:25:21;102197.0;;;9.33;93.7
64023;BME280;50264;52.088;5.296;2023-02-20T09:26:57;102198.0;;;9.35;93.61
64023;BME280;50264;52.088;5.296;2023-02-20T09:30:14;102191.0;;;9.38;92.89
64023;BME280;50264;52.088;5.296;2023-02-20T09:31:52;102185.0;;;9.35;92.84
64023;BME280;50264;52.088;5.296;2023-02-20T09:33:29;102189.0;;;9.36;92.97
64023;BME280;50264;52.088;5.296;2023-02-20T09:35:05;102193.0;;;9.38;93.74
64023;BME280;50264;52.088;5.296;2023-02-20T09:38:17;102193.0;;;9.33;93.32
64023;BME280;50264;52.088;5.296;2023-02-20T09:39:53;102189.0;;;9.41;93.35
64023;BME280;50264;52.088;5.296;2023-02-20T09:41:40;102202.0;;;9.28;93.66
64023;BME280;50264;52.088;5.296;2023-02-20T09:43:29;102194.0;;;9.26;93.16
64023;BME280;50264;52.088;5.296;2023-02-20T09:47:02;102208.0;;;9.23;93.93
64023;BME280;50264;52.088;5.296;2023-02-20T09:48:51;102207.0;;;9.26;93.3
64023;BME280;50264;52.088;5.296;2023-02-20T09:50:48;102206.0;;;9.31;93.59
64023;BME280;50264;52.088;5.296;2023-02-20T09:52:28;102211.0;;;9.44;92.9
64023;BME280;50264;52.088;5.296;2023-02-20T09:54:07;102209.0;;;9.39;92.65
64023;BME280;50264;52.088;5.296;2023-02-20T09:57:26;102211.0;;;9.38;93.27
64023;BME280;50264;52.088;5.296;2023-02-20T09:59:07;102208.0;;;9.26;93.13
64023;BME280;50264;52.088;5.296;2023-02-20T10:00:49;102211.0;;;9.26;93.13
64023;BME280;50264;52.088;5.296;2023-02-20T10:02:29;102202.0;;;9.25;93.26
64023;BME280;50264;52.088;5.296;2023-02-20T10:05:49;102199.0;;;9.24;93.31
64023;BME280;50264;52.088;5.296;2023-02-20T10:07:27;102196.0;;;9.32;93.28
64023;BME280;50264;52.088;5.296;2023-02-20T10:09:09;102193.0;;;9.36;93.1
64023;BME280;50264;52.088;5.296;2023-02-20T10:10:49;102186.0;;;9.31;93.41
64023;BME280;50264;52.088;5.296;2023-02-20T10:14:29;102188.0;;;9.27;93.3
64023;BME280;50264;52.088;5.296;2023-02-20T10:16:18;102200.0;;;9.34;94.2
64023;BME280;50264;52.088;5.296;2023-02-20T10:18:08;102192.0;;;9.39;93.13
64023;BME280;50264;52.088;5.296;2023-02-20T10:19:55;102187.0;;;9.35;92.87
64023;BME280;50264;52.088;5.296;2023-02-20T10:21:46;102194.0;;;9.53;93.17
64023;BME280;50264;52.088;5.296;2023-02-20T10:23:35;102202.0;;;9.52;92.86
64023;BME280;50264;52.088;5.296;2023-02-20T10:29:03;102206.0;;;9.46;92.93
64023;BME280;50264;52.088;5.296;2023-02-20T10:30:54;102201.0;;;9.52;92.54
64023;BME280;50264;52.088;5.296;2023-02-20T10:32:40;102203.0;;;9.48;92.92
64023;BME280;50264;52.088;5.296;2023-02-20T10:34:22;102193.0;;;9.59;92.29
64023;BME280;50264;52.088;5.296;2023-02-20T10:36:08;102208.0;;;9.55;92.2
64023;BME280;50264;52.088;5.296;2023-02-20T10:37:51;102203.0;;;9.53;92.21
64023;BME280;50264;52.088;5.296;2023-02-20T10:41:14;102193.0;;;9.67;91.86
64023;BME280;50264;52.088;5.296;2023-02-20T10:43:01;102191.0;;;9.67;91.86
64023;BME280;50264;52.088;5.296;2023-02-20T10:44:46;102177.0;;;9.64;91.89
64023;BME280;50264;52.088;5.296;2023-02-20T10:46:29;102163.0;;;9.57;91.79
64023;BME280;50264;52.088;5.296;2023-02-20T10:49:51;102169.0;;;9.57;92.06
64023;BME280;50264;52.088;5.296;2023-02-20T10:51:34;102198.0;;;9.53;92.17
64023;BME280;50264;52.088;5.296;2023-02-20T10:53:20;102189.0;;;9.55;91.81
64023;BME280;50264;52.088;5.296;2023-02-20T10:55:05;102181.0;;;9.66;91.97
64023;BME280;50264;52.088;5.296;2023-02-20T10:56:49;102170.0;;;9.57;91.92
64023;BME280;50264;52.088;5.296;2023-02-20T11:00:19;102178.0;;;9.6;92.21
64023;BME280;50264;52.088;5.296;2023-02-20T11:02:00;102190.0;;;9.64;91.8
64023;BME280;50264;52.088;5.296;2023-02-20T11:03:44;102192.0;;;9.66;91.2
64023;BME280;50264;52.088;5.296;2023-02-20T11:05:25;102187.0;;;9.55;91.2
64023;BME280;50264;52.088;5.296;2023-02-20T11:10:23;102180.0;;;9.46;92.06
64023;BME280;50264;52.088;5.296;2023-02-20T11:12:00;102169.0;;;9.52;91.92
64023;BME280;50264;52.088;5.296;2023-02-20T11:13:37;102185.0;;;9.64;92.08
64023;BME280;50264;52.088;5.296;2023-02-20T11:16:58;102189.0;;;9.68;91.99
64023;BME280;50264;52.088;5.296;2023-02-20T11:18:37;102195.0;;;9.61;91.25
64023;BME280;50264;52.088;5.296;2023-02-20T11:20:44;102207.0;;;9.67;91.01
64023;BME280;50264;52.088;5.296;2023-02-20T11:22:42;102189.0;;;9.59;90.86
64023;BME280;50264;52.088;5.296;2023-02-20T11:24:29;102185.0;;;9.58;91.2
64023;BME280;50264;52.088;5.296;2023-02-20T11:26:25;102193.0;;;9.5;91.46
64023;BME280;50264;52.088;5.296;2023-02-20T11:28:18;102188.0;;;9.44;91.66
64023;BME280;50264;52.088;5.296;2023-02-20T11:31:39;102169.0;;;9.57;91.69
64023;BME280;50264;52.088;5.296;2023-02-20T11:33:18;102145.0;;;9.53;91.17
64023;BME280;50264;52.088;5.296;2023-02-20T11:35:20;102135.0;;;9.55;91.81
64023;BME280;50264;52.088;5.296;2023-02-20T11:37:11;102133.0;;;9.64;91.61